Time;durP1;ratioP1;P1;durP2;ratioP2;P2;SDS_P1;SDS_P2;PMS_P1;PMS_P2;Temp;Humidity;BMP_temperature;BMP_pressure;BME280_temperature;BME280_humidity;BME280_pressure;Samples;Min_cycle;Max_cycle;Signal;HPM_P1;HPM_P2
2022/03/01 00:02:15;;;;;;;15.40;7.45;;;3.00;95.60;;;;;;5030845;28;20057;-67
2022/03/01 00:04:44;;;;;;;16.23;7.88;;;3.10;95.50;;;;;;5041373;28;20060;-70
2022/03/01 00:07:10;;;;;;;15.82;8.23;;;3.00;95.50;;;;;;5046079;28;20044;-69
2022/03/01 00:09:37;;;;;;;19.17;8.73;;;3.00;95.60;;;;;;5028912;28;20037;-67
2022/03/01 00:12:03;;;;;;;16.50;8.77;;;3.00;95.90;;;;;;5034114;28;20045;-72
2022/03/01 00:14:29;;;;;;;15.65;7.95;;;3.00;95.80;;;;;;5036831;28;20509;-67
2022/03/01 00:16:55;;;;;;;17.43;8.90;;;3.00;95.70;;;;;;5040956;28;20029;-67
2022/03/01 00:19:21;;;;;;;17.90;9.23;;;2.90;95.90;;;;;;5026111;28;20098;-67
2022/03/01 00:21:46;;;;;;;17.77;9.40;;;2.90;96.10;;;;;;5046425;28;20544;-66
2022/03/01 00:24:12;;;;;;;17.17;7.77;;;2.90;96.30;;;;;;5033368;28;20130;-67
2022/03/01 00:26:38;;;;;;;17.10;8.47;;;2.90;96.70;;;;;;5037221;28;20041;-67
2022/03/01 00:29:04;;;;;;;19.00;8.93;;;2.90;96.50;;;;;;5034470;28;20055;-67
2022/03/01 00:31:29;;;;;;;19.75;8.98;;;2.90;96.60;;;;;;5038510;28;20040;-67
2022/03/01 00:33:55;;;;;;;19.80;9.63;;;2.90;96.90;;;;;;5038226;28;20053;-67
2022/03/01 00:36:20;;;;;;;16.97;9.47;;;2.90;96.50;;;;;;5038503;28;20056;-67
2022/03/01 00:38:46;;;;;;;21.17;8.93;;;2.90;96.70;;;;;;5042944;28;20047;-66
2022/03/01 00:41:12;;;;;;;18.43;9.80;;;2.80;96.50;;;;;;5023330;28;20132;-67
2022/03/01 00:43:37;;;;;;;18.23;9.90;;;2.80;96.50;;;;;;5032622;28;20075;-67
2022/03/01 00:46:03;;;;;;;15.43;8.47;;;2.80;96.60;;;;;;5034283;28;20092;-67
2022/03/01 00:48:28;;;;;;;15.83;8.63;;;2.80;96.60;;;;;;5038252;28;20040;-67
2022/03/01 00:50:54;;;;;;;16.13;8.53;;;2.80;96.90;;;;;;5010683;28;20052;-68
2022/03/01 00:53:19;;;;;;;16.77;9.43;;;2.90;96.90;;;;;;5035968;28;20037;-67
2022/03/01 00:55:45;;;;;;;16.57;9.13;;;2.90;96.60;;;;;;5001052;22;20061;-68
2022/03/01 00:58:11;;;;;;;17.40;8.43;;;2.80;96.60;;;;;;4977982;28;20042;-68
2022/03/01 01:00:36;;;;;;;15.27;8.20;;;2.80;96.60;;;;;;4987476;28;20050;-68
2022/03/01 01:03:02;;;;;;;15.07;7.33;;;2.80;96.60;;;;;;4983560;28;20352;-68
2022/03/01 01:05:28;;;;;;;16.13;9.40;;;2.80;96.70;;;;;;4986939;28;20471;-68
2022/03/01 01:07:54;;;;;;;19.07;8.77;;;2.70;96.60;;;;;;4985038;28;20057;-68
2022/03/01 01:10:20;;;;;;;15.30;8.90;;;2.70;96.80;;;;;;4988032;28;20122;-68
2022/03/01 01:12:46;;;;;;;18.55;9.50;;;2.70;97.00;;;;;;4991268;28;20046;-67
2022/03/01 01:15:14;;;;;;;19.60;8.52;;;2.60;97.00;;;;;;4988666;28;20125;-68
2022/03/01 01:17:40;;;;;;;18.42;8.20;;;2.60;97.50;;;;;;4979494;28;20034;-68
2022/03/01 01:20:07;;;;;;;21.97;9.23;;;2.60;97.60;;;;;;4986167;28;20053;-67
2022/03/01 01:22:42;;;;;;;17.95;9.05;;;2.60;97.50;;;;;;4988940;28;20050;-68
2022/03/01 01:25:09;;;;;;;18.15;9.10;;;2.60;97.50;;;;;;4979567;28;20046;-68
2022/03/01 01:27:36;;;;;;;20.75;8.98;;;2.60;97.60;;;;;;4980289;28;20121;-68
2022/03/01 01:30:04;;;;;;;16.98;9.40;;;2.60;97.80;;;;;;4992375;28;20092;-68
2022/03/01 01:32:29;;;;;;;17.42;9.18;;;2.60;98.10;;;;;;4989136;28;20289;-68
2022/03/01 01:34:55;;;;;;;16.93;8.37;;;2.60;98.00;;;;;;4989180;28;20235;-68
2022/03/01 01:37:20;;;;;;;18.07;9.17;;;2.60;98.40;;;;;;4989419;28;20061;-68
2022/03/01 01:39:47;;;;;;;19.60;8.57;;;2.60;98.20;;;;;;4996598;28;20124;-68
2022/03/01 01:42:13;;;;;;;24.70;8.93;;;2.60;98.30;;;;;;4961669;28;20090;-68
2022/03/01 01:44:38;;;;;;;16.60;8.23;;;2.60;98.30;;;;;;4986284;28;20069;-68
2022/03/01 01:47:07;;;;;;;17.63;8.47;;;2.50;98.30;;;;;;4988501;28;20128;-68
2022/03/01 01:49:33;;;;;;;19.33;8.35;;;2.60;98.50;;;;;;4975878;28;20042;-68
2022/03/01 01:51:59;;;;;;;16.05;8.55;;;2.60;99.10;;;;;;4982358;28;20493;-68
2022/03/01 01:54:24;;;;;;;21.97;9.73;;;2.60;98.80;;;;;;4986926;28;20067;-68
2022/03/01 01:56:50;;;;;;;18.03;8.80;;;2.60;98.60;;;;;;4992143;28;20134;-68
2022/03/01 01:59:15;;;;;;;19.50;8.70;;;2.60;98.80;;;;;;4987415;28;20480;-68
2022/03/01 02:01:41;;;;;;;17.53;8.80;;;2.60;98.80;;;;;;4989065;28;20069;-68
2022/03/01 02:04:07;;;;;;;15.38;8.25;;;2.60;98.90;;;;;;4988123;28;20554;-68
2022/03/01 02:06:36;;;;;;;15.50;8.20;;;2.70;99.10;;;;;;4987211;28;20145;-68
2022/03/01 02:09:02;;;;;;;19.75;8.85;;;2.60;99.20;;;;;;4991076;28;20131;-68
2022/03/01 02:11:28;;;;;;;17.20;8.35;;;2.60;99.30;;;;;;4991632;28;20077;-68
2022/03/01 02:13:53;;;;;;;20.10;8.93;;;2.70;99.20;;;;;;4989399;28;20066;-68
2022/03/01 02:16:19;;;;;;;15.93;8.40;;;2.70;99.20;;;;;;5003697;28;20050;-69
2022/03/01 02:18:45;;;;;;;22.47;8.87;;;2.70;99.00;;;;;;4993349;28;20034;-68
2022/03/01 02:21:11;;;;;;;17.55;8.75;;;2.70;98.80;;;;;;5005526;28;20077;-68
2022/03/01 02:23:36;;;;;;;16.30;7.87;;;2.70;98.90;;;;;;4988408;28;20493;-68
2022/03/01 02:26:02;;;;;;;13.10;7.77;;;2.70;98.70;;;;;;4994665;28;20046;-68
2022/03/01 02:28:28;;;;;;;21.50;9.13;;;2.70;98.90;;;;;;4998206;28;20042;-68
2022/03/01 02:30:55;;;;;;;15.23;9.13;;;2.70;98.80;;;;;;4987314;28;20120;-68
2022/03/01 02:33:20;;;;;;;17.92;9.30;;;2.70;98.70;;;;;;4988574;28;20122;-68
2022/03/01 02:35:46;;;;;;;17.67;7.83;;;2.70;98.70;;;;;;4987977;28;20141;-68
2022/03/01 02:38:11;;;;;;;19.73;9.07;;;2.70;98.90;;;;;;4988066;28;20030;-68
2022/03/01 02:40:37;;;;;;;18.57;8.60;;;2.70;98.70;;;;;;4981088;28;20042;-67
2022/03/01 02:43:03;;;;;;;16.60;9.10;;;2.70;99.00;;;;;;4995222;28;20586;-68
2022/03/01 02:45:28;;;;;;;15.60;7.73;;;2.80;99.10;;;;;;4998700;28;20041;-68
2022/03/01 02:47:54;;;;;;;20.33;8.83;;;2.80;98.80;;;;;;4996611;28;20058;-69
2022/03/01 02:50:20;;;;;;;18.30;8.87;;;2.80;99.00;;;;;;4988860;28;20039;-69
2022/03/01 02:52:45;;;;;;;18.30;8.70;;;2.80;98.70;;;;;;4981199;28;20093;-68
2022/03/01 02:55:11;;;;;;;23.67;8.80;;;2.80;98.70;;;;;;4980125;28;20467;-69
2022/03/01 02:57:37;;;;;;;18.10;8.93;;;2.80;98.60;;;;;;4978531;28;20061;-68
2022/03/01 03:00:05;;;;;;;19.00;9.33;;;2.80;99.30;;;;;;4987288;28;20039;-68
2022/03/01 03:02:31;;;;;;;15.32;8.27;;;2.80;98.70;;;;;;4994341;28;20057;-68
2022/03/01 03:04:56;;;;;;;17.50;9.77;;;2.80;98.60;;;;;;4985312;28;20045;-68
2022/03/01 03:07:22;;;;;;;19.10;9.53;;;2.80;98.60;;;;;;4991071;28;20042;-68
2022/03/01 03:09:48;;;;;;;18.90;8.80;;;2.80;98.70;;;;;;4988760;28;21167;-68
2022/03/01 03:12:13;;;;;;;18.00;8.60;;;2.80;98.60;;;;;;4986898;28;20066;-68
2022/03/01 03:14:39;;;;;;;16.27;8.67;;;2.90;98.50;;;;;;4974699;28;20042;-68
2022/03/01 03:17:05;;;;;;;14.48;8.05;;;2.80;98.70;;;;;;4987365;28;20536;-68
2022/03/01 03:19:32;;;;;;;18.38;8.90;;;2.90;98.20;;;;;;4983964;28;20065;-68
2022/03/01 03:21:58;;;;;;;15.48;8.35;;;2.90;98.00;;;;;;4974792;28;20109;-68
2022/03/01 03:24:23;;;;;;;19.17;8.60;;;2.90;98.20;;;;;;5004620;28;20472;-68
2022/03/01 03:26:49;;;;;;;18.83;8.90;;;2.90;98.20;;;;;;4983472;28;20702;-68
2022/03/01 03:29:15;;;;;;;17.70;8.93;;;2.80;98.20;;;;;;4971290;28;20085;-68
2022/03/01 03:31:42;;;;;;;25.03;9.07;;;2.80;98.20;;;;;;4989502;28;20042;-68
2022/03/01 03:34:10;;;;;;;21.58;9.52;;;2.80;98.30;;;;;;4974736;28;20396;-68
2022/03/01 03:36:37;;;;;;;24.40;10.02;;;2.80;98.30;;;;;;4993784;28;20458;-68
2022/03/01 03:39:05;;;;;;;15.98;9.45;;;2.80;98.70;;;;;;4996279;28;20117;-67
2022/03/01 03:41:31;;;;;;;16.98;8.73;;;2.80;98.70;;;;;;4984581;28;20042;-68
2022/03/01 03:43:56;;;;;;;20.47;9.77;;;2.80;98.80;;;;;;4985299;28;20053;-68
2022/03/01 03:46:22;;;;;;;20.23;9.00;;;2.80;98.90;;;;;;4985643;28;20404;-67
2022/03/01 03:48:48;;;;;;;19.63;9.10;;;2.80;99.40;;;;;;4991133;28;20038;-68
2022/03/01 03:51:14;;;;;;;16.13;8.80;;;2.80;99.20;;;;;;4984007;28;20407;-68
2022/03/01 03:53:40;;;;;;;15.18;8.15;;;2.80;99.00;;;;;;4988032;28;20314;-68
2022/03/01 03:56:06;;;;;;;18.37;9.23;;;2.80;99.10;;;;;;4987790;28;20104;-69
2022/03/01 03:58:31;;;;;;;17.87;9.30;;;2.80;99.50;;;;;;4989110;28;20042;-68
2022/03/01 04:00:57;;;;;;;19.53;9.90;;;2.80;99.40;;;;;;4982122;28;20042;-68
2022/03/01 04:03:26;;;;;;;17.27;7.90;;;2.80;99.50;;;;;;4977273;28;20050;-68
2022/03/01 04:05:52;;;;;;;17.40;8.77;;;2.80;99.80;;;;;;4988693;28;20057;-68
2022/03/01 04:08:18;;;;;;;16.97;9.33;;;2.80;99.60;;;;;;4988775;28;20069;-68
2022/03/01 04:10:44;;;;;;;18.13;9.33;;;2.80;99.60;;;;;;4986934;28;20129;-68
2022/03/01 04:13:10;;;;;;;17.52;8.38;;;2.80;99.70;;;;;;4977053;28;20127;-68
2022/03/01 04:15:36;;;;;;;18.30;9.43;;;2.80;99.70;;;;;;4992550;28;20057;-68
2022/03/01 04:18:03;;;;;;;18.45;9.88;;;2.80;99.70;;;;;;4983623;28;20054;-68
2022/03/01 04:20:28;;;;;;;;;;;2.80;99.90;;;;;;4997204;28;20100;-67
2022/03/01 04:22:54;;;;;;;18.35;8.52;;;2.80;99.90;;;;;;4985579;28;19922;-68
2022/03/01 04:25:20;;;;;;;18.60;9.80;;;2.80;99.70;;;;;;4990136;28;20395;-71
2022/03/01 04:27:45;;;;;;;16.90;8.50;;;2.80;99.60;;;;;;4992669;28;20128;-68
2022/03/01 04:30:12;;;;;;;16.20;8.67;;;2.90;99.40;;;;;;4994180;28;20039;-67
2022/03/01 04:32:40;;;;;;;16.48;8.60;;;2.90;99.60;;;;;;4984109;28;20038;-68
2022/03/01 04:35:08;;;;;;;18.63;8.88;;;2.90;99.50;;;;;;4983476;28;20042;-68
2022/03/01 04:37:37;;;;;;;20.98;9.43;;;2.90;99.50;;;;;;4984807;28;20057;-69
2022/03/01 04:40:09;;;;;;;16.27;8.40;;;2.90;99.90;;;;;;4982662;28;20167;-70
2022/03/01 04:42:35;;;;;;;15.15;8.43;;;2.90;99.90;;;;;;4985704;28;20236;-68
2022/03/01 04:45:01;;;;;;;19.00;9.32;;;2.80;99.80;;;;;;4982741;28;20425;-68
2022/03/01 04:47:27;;;;;;;16.35;8.73;;;2.90;99.90;;;;;;4988390;28;20445;-68
2022/03/01 04:49:52;;;;;;;16.58;8.75;;;2.90;99.90;;;;;;4980849;28;20511;-68
2022/03/01 04:52:18;;;;;;;17.10;9.67;;;2.90;99.90;;;;;;5002920;28;20164;-68
2022/03/01 04:54:44;;;;;;;18.80;9.63;;;2.90;99.90;;;;;;4981730;28;20108;-68
2022/03/01 04:57:09;;;;;;;19.43;9.83;;;2.90;99.90;;;;;;4976811;28;20107;-68
2022/03/01 04:59:35;;;;;;;17.77;9.60;;;2.90;99.90;;;;;;4985098;28;20047;-68
2022/03/01 05:02:01;;;;;;;17.00;8.97;;;2.90;99.90;;;;;;4981234;28;20610;-68
2022/03/01 05:04:26;;;;;;;18.73;9.77;;;2.90;99.90;;;;;;4953374;28;20402;-68
2022/03/01 05:06:53;;;;;;;16.80;8.97;;;2.90;99.90;;;;;;4988176;28;20045;-68
2022/03/01 05:09:21;;;;;;;20.35;9.65;;;2.90;99.70;;;;;;4983339;28;20062;-68
2022/03/01 05:11:48;;;;;;;18.95;9.57;;;2.90;99.80;;;;;;4987977;28;20054;-68
2022/03/01 05:14:13;;;;;;;17.55;8.60;;;2.90;99.90;;;;;;4982470;28;20034;-68
2022/03/01 05:16:39;;;;;;;17.43;9.17;;;2.90;99.90;;;;;;4979969;28;20041;-68
2022/03/01 05:19:04;;;;;;;19.17;9.43;;;2.90;99.90;;;;;;4992663;28;20224;-68
2022/03/01 05:21:30;;;;;;;18.43;9.03;;;2.90;99.90;;;;;;4990252;28;20192;-68
2022/03/01 05:23:56;;;;;;;19.10;8.97;;;2.90;99.80;;;;;;4985556;28;20463;-68
2022/03/01 05:26:21;;;;;;;16.07;8.53;;;2.90;99.80;;;;;;4984096;28;20042;-70
2022/03/01 05:28:47;;;;;;;19.20;8.87;;;3.00;99.90;;;;;;4987441;28;20043;-70
2022/03/01 05:31:13;;;;;;;18.20;9.67;;;3.00;99.90;;;;;;4985511;28;20049;-70
2022/03/01 05:33:40;;;;;;;16.33;8.97;;;3.00;99.90;;;;;;4980271;28;20145;-69
2022/03/01 05:36:06;;;;;;;19.65;8.85;;;2.90;99.90;;;;;;4984110;28;20215;-70
2022/03/01 05:38:32;;;;;;;20.33;9.27;;;3.00;99.90;;;;;;5001058;28;20045;-70
2022/03/01 05:40:58;;;;;;;18.93;9.20;;;3.00;99.90;;;;;;4990996;28;20030;-70
2022/03/01 05:43:23;;;;;;;18.37;9.63;;;3.00;99.90;;;;;;4986426;28;20049;-70
2022/03/01 05:45:49;;;;;;;16.27;9.10;;;3.00;99.80;;;;;;4986557;28;20068;-69
2022/03/01 05:48:15;;;;;;;17.60;9.27;;;3.00;99.80;;;;;;4996335;28;20459;-70
2022/03/01 05:50:40;;;;;;;17.53;9.07;;;3.00;99.90;;;;;;4974682;28;20046;-70
2022/03/01 05:53:06;;;;;;;17.40;8.67;;;3.00;99.90;;;;;;4992765;28;20075;-70
2022/03/01 05:55:31;;;;;;;17.63;8.70;;;3.00;99.90;;;;;;4990657;28;20169;-69
2022/03/01 05:57:57;;;;;;;16.70;8.30;;;3.00;99.80;;;;;;4985669;28;20478;-70
2022/03/01 06:00:23;;;;;;;18.33;9.07;;;3.00;99.70;;;;;;4984275;28;20073;-70
2022/03/01 06:02:50;;;;;;;20.17;9.57;;;3.00;99.90;;;;;;4981642;28;20440;-70
2022/03/01 06:05:16;;;;;;;19.67;9.93;;;3.00;99.80;;;;;;4981571;28;20548;-70
2022/03/01 06:07:42;;;;;;;22.15;9.35;;;3.00;99.90;;;;;;4984972;28;20050;-70
2022/03/01 06:10:08;;;;;;;16.02;8.48;;;3.00;99.90;;;;;;4986635;28;20050;-70
2022/03/01 06:12:34;;;;;;;18.20;8.85;;;3.00;99.90;;;;;;4981691;28;20089;-70
2022/03/01 06:15:00;;;;;;;18.85;8.45;;;3.10;99.90;;;;;;4986082;28;20728;-70
2022/03/01 06:17:26;;;;;;;19.33;9.05;;;3.10;99.80;;;;;;4981858;28;20038;-70
2022/03/01 06:19:52;;;;;;;18.63;9.23;;;3.10;99.90;;;;;;4985911;28;20074;-70
2022/03/01 06:22:19;;;;;;;16.43;8.90;;;3.10;99.70;;;;;;4971261;28;20066;-70
2022/03/01 06:24:44;;;;;;;;;;;3.10;99.90;;;;;;4982911;28;20097;-70
2022/03/01 06:27:10;;;;;;;16.35;8.15;;;3.10;99.90;;;;;;4989085;28;19957;-69
2022/03/01 06:29:37;;;;;;;20.80;10.20;;;3.10;99.90;;;;;;4988725;28;20418;-70
2022/03/01 06:32:03;;;;;;;20.13;10.02;;;3.20;99.70;;;;;;4989962;28;20482;-70
2022/03/01 06:34:30;;;;;;;20.02;10.05;;;3.20;99.50;;;;;;4976196;28;21022;-70
2022/03/01 06:36:56;;;;;;;;;;;3.20;99.50;;;;;;4983758;28;20494;-70
2022/03/01 06:39:21;;;;;;;18.95;8.75;;;3.20;99.90;;;;;;4992640;28;19918;-70
2022/03/01 06:41:47;;;;;;;15.30;8.47;;;3.20;99.40;;;;;;4985591;28;20067;-70
2022/03/01 06:44:18;;;;;;;16.50;8.70;;;3.20;99.30;;;;;;4985242;28;20391;-70
2022/03/01 06:46:44;;;;;;;25.20;10.18;;;3.30;99.00;;;;;;4991262;28;20049;-70
2022/03/01 06:49:09;;;;;;;21.70;9.45;;;3.20;98.90;;;;;;4987559;28;20042;-71
2022/03/01 06:51:35;;;;;;;15.07;8.70;;;3.30;99.00;;;;;;4984636;28;20034;-70
2022/03/01 06:54:26;;;;;;;18.17;9.57;;;3.30;99.00;;;;;;4990006;28;20054;-72
2022/03/01 06:56:51;;;;;;;19.20;10.02;;;3.40;99.10;;;;;;5002088;28;20509;-65
2022/03/01 06:59:17;;;;;;;18.07;9.60;;;3.40;99.20;;;;;;4991783;28;20038;-66
2022/03/01 07:01:42;;;;;;;20.20;10.37;;;3.40;99.30;;;;;;5001515;28;20066;-65
2022/03/01 07:04:08;;;;;;;17.33;9.13;;;3.50;99.20;;;;;;4989630;28;20057;-65
2022/03/01 07:06:34;;;;;;;20.03;9.27;;;3.50;99.10;;;;;;4975783;28;20043;-65
2022/03/01 07:09:00;;;;;;;17.37;9.50;;;3.50;99.00;;;;;;5001753;28;20042;-66
2022/03/01 07:11:25;;;;;;;16.97;9.33;;;3.50;99.00;;;;;;5003014;28;20670;-66
2022/03/01 07:13:51;;;;;;;18.87;9.53;;;3.60;98.90;;;;;;5006035;28;20387;-65
2022/03/01 07:16:18;;;;;;;16.57;9.57;;;3.60;98.80;;;;;;5004398;28;20390;-66
2022/03/01 07:18:44;;;;;;;;;;;3.60;98.70;;;;;;5005731;28;20116;-65
2022/03/01 07:21:10;;;;;;;16.48;9.13;;;3.70;98.10;;;;;;4991243;28;20015;-66
2022/03/01 07:23:35;;;;;;;19.08;9.75;;;3.70;98.10;;;;;;4991318;28;20049;-66
2022/03/01 07:26:03;;;;;;;19.73;9.70;;;3.70;98.10;;;;;;5007191;28;20049;-66
2022/03/01 07:28:28;;;;;;;17.85;9.38;;;3.70;98.40;;;;;;5005753;28;20529;-66
2022/03/01 07:30:54;;;;;;;20.77;9.53;;;3.70;98.30;;;;;;4996078;28;20029;-66
2022/03/01 07:33:20;;;;;;;20.10;9.40;;;3.80;98.40;;;;;;4995078;28;20041;-66
2022/03/01 07:35:46;;;;;;;19.50;9.33;;;3.80;98.50;;;;;;5006780;28;20084;-66
2022/03/01 07:38:12;;;;;;;17.77;9.20;;;3.80;97.80;;;;;;5007921;28;20128;-66
2022/03/01 07:40:38;;;;;;;21.20;9.57;;;3.90;97.50;;;;;;5008599;28;20442;-66
2022/03/01 07:43:06;;;;;;;18.57;8.93;;;3.90;97.10;;;;;;4990038;28;20052;-65
2022/03/01 07:45:31;;;;;;;19.27;10.52;;;3.80;96.60;;;;;;5003742;28;20046;-65
2022/03/01 07:47:58;;;;;;;21.07;9.73;;;3.90;97.10;;;;;;5004806;28;20047;-65
2022/03/01 07:50:24;;;;;;;20.88;10.30;;;4.00;97.00;;;;;;5000258;28;20338;-66
2022/03/01 07:52:50;;;;;;;24.90;9.23;;;3.90;97.10;;;;;;5006661;28;20099;-66
2022/03/01 07:55:16;;;;;;;19.58;10.63;;;3.90;96.70;;;;;;5006162;28;20053;-66
2022/03/01 07:57:42;;;;;;;18.40;9.50;;;4.00;96.90;;;;;;4993728;28;20046;-66
2022/03/01 08:00:09;;;;;;;17.97;10.20;;;4.00;97.10;;;;;;5006249;28;20129;-65
2022/03/01 08:02:36;;;;;;;17.75;9.02;;;4.00;96.90;;;;;;4996894;28;20042;-65
2022/03/01 08:05:03;;;;;;;;;;;4.10;97.10;;;;;;4984876;28;20056;-66
2022/03/01 08:07:28;;;;;;;23.75;11.38;;;4.10;97.00;;;;;;4983550;28;20017;-65
2022/03/01 08:09:54;;;;;;;24.70;9.83;;;4.10;96.90;;;;;;5005676;28;20131;-65
2022/03/01 08:12:20;;;;;;;17.73;9.47;;;4.20;96.30;;;;;;5008373;28;20037;-66
2022/03/01 08:14:45;;;;;;;23.17;9.87;;;4.20;96.30;;;;;;5003731;28;20038;-65
2022/03/01 08:17:11;;;;;;;16.90;9.60;;;4.30;96.20;;;;;;4991937;28;20506;-65
2022/03/01 08:19:36;;;;;;;18.97;9.17;;;4.30;96.20;;;;;;4995308;28;21048;-66
2022/03/01 08:22:02;;;;;;;18.57;9.90;;;4.40;96.30;;;;;;5002311;28;20044;-66
2022/03/01 08:24:28;;;;;;;17.75;9.90;;;4.40;96.10;;;;;;5004560;28;20237;-66
2022/03/01 08:26:54;;;;;;;19.30;10.07;;;4.50;96.10;;;;;;5001218;28;20041;-67
2022/03/01 08:29:20;;;;;;;23.57;11.00;;;4.60;95.60;;;;;;4986506;28;20038;-66
2022/03/01 08:31:46;;;;;;;23.30;10.37;;;4.60;95.60;;;;;;5000661;28;20514;-66
2022/03/01 08:34:13;;;;;;;20.42;10.52;;;4.70;95.80;;;;;;4999384;28;20112;-66
2022/03/01 08:36:38;;;;;;;21.25;9.07;;;4.80;95.90;;;;;;4986043;28;20042;-66
2022/03/01 08:39:05;;;;;;;20.30;9.73;;;4.90;95.60;;;;;;5007130;28;20502;-66
2022/03/01 08:41:31;;;;;;;20.15;10.13;;;4.90;94.60;;;;;;5003985;28;20418;-65
2022/03/01 08:43:56;;;;;;;18.15;9.70;;;5.00;94.60;;;;;;5004129;28;20046;-65
2022/03/01 08:46:23;;;;;;;18.23;10.80;;;5.00;94.00;;;;;;4992491;28;20041;-66
2022/03/01 08:48:53;;;;;;;19.35;10.02;;;5.10;94.10;;;;;;4987386;28;20551;-66
2022/03/01 08:51:21;;;;;;;17.65;9.07;;;5.20;93.80;;;;;;5019234;28;20653;-66
2022/03/01 08:53:47;;;;;;;17.08;9.00;;;5.30;93.10;;;;;;5006531;28;20486;-66
2022/03/01 08:56:15;;;;;;;18.23;10.63;;;5.30;92.50;;;;;;5004695;28;20038;-65
2022/03/01 08:58:44;;;;;;;20.13;10.75;;;5.30;92.20;;;;;;5000551;28;20681;-65
2022/03/01 09:01:09;;;;;;;19.27;9.80;;;5.30;91.10;;;;;;4974105;28;20046;-65
2022/03/01 09:03:36;;;;;;;18.37;9.50;;;5.30;90.80;;;;;;4997811;28;20575;-65
2022/03/01 09:06:05;;;;;;;16.50;8.98;;;5.30;90.40;;;;;;5001291;28;20510;-66
2022/03/01 09:08:31;;;;;;;19.13;10.10;;;5.30;90.60;;;;;;5006255;28;20445;-65
2022/03/01 09:10:56;;;;;;;19.05;8.82;;;5.30;91.00;;;;;;5001244;28;20050;-65
2022/03/01 09:13:22;;;;;;;20.30;10.17;;;5.30;90.80;;;;;;5005367;28;20041;-65
2022/03/01 09:15:48;;;;;;;17.80;9.67;;;5.30;90.90;;;;;;5002464;28;20048;-65
2022/03/01 09:18:13;;;;;;;18.90;9.50;;;5.40;91.70;;;;;;4999743;28;20100;-65
2022/03/01 09:20:39;;;;;;;20.43;9.83;;;5.40;90.90;;;;;;4990278;28;20506;-66
2022/03/01 09:23:04;;;;;;;18.80;9.57;;;5.40;91.20;;;;;;4983801;28;20120;-65
2022/03/01 09:25:30;;;;;;;15.93;8.53;;;5.40;91.40;;;;;;5002135;28;20116;-65
2022/03/01 09:27:56;;;;;;;14.67;8.37;;;5.50;90.70;;;;;;5003446;28;20052;-66
2022/03/01 09:30:22;;;;;;;21.35;10.13;;;5.50;90.40;;;;;;5005135;28;20394;-66
2022/03/01 09:32:47;;;;;;;16.50;9.33;;;5.60;90.60;;;;;;4998391;28;20037;-65
2022/03/01 09:35:13;;;;;;;14.47;8.53;;;5.60;89.90;;;;;;4998673;28;20056;-65
2022/03/01 09:37:41;;;;;;;20.90;10.60;;;5.70;90.60;;;;;;4998625;28;20484;-65
2022/03/01 09:40:08;;;;;;;17.92;10.00;;;5.70;90.90;;;;;;5004907;28;20421;-66
2022/03/01 09:42:34;;;;;;;18.60;10.45;;;5.80;90.30;;;;;;5005237;28;20052;-65
2022/03/01 09:45:00;;;;;;;20.60;10.17;;;5.90;90.60;;;;;;4983421;28;20049;-65
2022/03/01 09:47:26;;;;;;;19.95;10.07;;;6.00;90.30;;;;;;5003428;28;20080;-66
2022/03/01 09:49:52;;;;;;;17.10;10.50;;;6.10;90.20;;;;;;4985032;28;20042;-65
2022/03/01 09:52:19;;;;;;;17.67;9.48;;;6.20;89.00;;;;;;5001660;28;20096;-65
2022/03/01 09:54:48;;;;;;;19.58;9.70;;;6.20;88.00;;;;;;5004092;28;20041;-65
2022/03/01 09:57:14;;;;;;;19.10;10.40;;;6.30;88.40;;;;;;4998593;28;20086;-65
2022/03/01 09:59:40;;;;;;;;;;;6.40;86.60;;;;;;5003373;28;20044;-65
2022/03/01 10:02:07;;;;;;;18.08;9.30;;;6.60;84.30;;;;;;4978728;28;19925;-65
2022/03/01 10:04:32;;;;;;;19.92;9.38;;;6.60;85.80;;;;;;5002598;28;20056;-66
2022/03/01 10:07:01;;;;;;;18.73;10.50;;;6.80;82.50;;;;;;5003274;28;20395;-65
2022/03/01 10:09:27;;;;;;;16.83;9.85;;;6.90;82.90;;;;;;5003796;28;20133;-65
2022/03/01 10:11:53;;;;;;;19.37;10.87;;;7.00;82.10;;;;;;5003039;28;20087;-66
2022/03/01 10:14:32;;;;;;;17.40;9.07;;;7.10;80.70;;;;;;5005994;28;20057;-66
2022/03/01 10:16:59;;;;;;;18.63;9.45;;;7.20;78.10;;;;;;5005526;28;20129;-65
2022/03/01 10:19:26;;;;;;;21.58;11.23;;;7.20;77.50;;;;;;5005114;28;20034;-65
2022/03/01 10:21:58;;;;;;;;;;;7.20;75.90;;;;;;5008777;28;20049;-65
2022/03/01 10:24:24;;;;;;;19.88;9.68;;;7.10;74.30;;;;;;4987876;28;19928;-66
2022/03/01 10:26:54;;;;;;;17.87;10.07;;;7.20;75.80;;;;;;5006325;28;20041;-65
2022/03/01 10:29:26;;;;;;;20.80;10.40;;;7.10;75.80;;;;;;4989988;28;20034;-65
2022/03/01 10:31:52;;;;;;;18.63;10.90;;;7.20;74.50;;;;;;4989485;28;20049;-65
2022/03/01 10:34:18;;;;;;;21.50;10.88;;;7.20;73.50;;;;;;5008027;28;20490;-66
2022/03/01 10:36:47;;;;;;;28.37;12.87;;;7.20;74.80;;;;;;5008249;28;20064;-65
2022/03/01 10:39:19;;;;;;;19.80;10.73;;;7.20;74.90;;;;;;5005816;28;20048;-66
2022/03/01 10:41:47;;;;;;;19.10;11.30;;;7.20;75.40;;;;;;4994198;28;20068;-65
2022/03/01 10:44:20;;;;;;;20.88;10.57;;;7.20;75.00;;;;;;5002090;28;20046;-65
2022/03/01 10:46:50;;;;;;;22.58;11.18;;;7.20;74.90;;;;;;5001482;28;20044;-65
2022/03/01 10:49:20;;;;;;;18.48;10.48;;;7.20;75.00;;;;;;5002200;28;20461;-65
2022/03/01 10:51:53;;;;;;;19.27;10.05;;;7.30;75.30;;;;;;5005152;28;20840;-66
2022/03/01 10:54:40;;;;;;;22.42;10.68;;;7.30;74.20;;;;;;4970192;28;20046;-66
2022/03/01 10:57:11;;;;;;;16.58;10.13;;;7.30;74.30;;;;;;5006393;28;20096;-65
2022/03/01 10:59:38;;;;;;;23.83;9.95;;;7.30;75.10;;;;;;5002344;28;20046;-65
2022/03/01 11:02:05;;;;;;;18.90;10.60;;;7.30;75.40;;;;;;5005293;28;20103;-65
2022/03/01 11:04:31;;;;;;;19.40;10.30;;;7.40;75.70;;;;;;4998375;28;20042;-71
2022/03/01 11:07:00;;;;;;;20.40;10.88;;;7.40;75.70;;;;;;5004334;28;20076;-66
2022/03/01 11:09:32;;;;;;;20.90;10.40;;;7.40;76.10;;;;;;5003071;28;20441;-66
2022/03/01 11:11:59;;;;;;;21.33;11.48;;;7.40;75.50;;;;;;5009199;28;20543;-65
2022/03/01 11:14:29;;;;;;;20.20;10.35;;;7.40;75.00;;;;;;5004013;28;20042;-65
2022/03/01 11:17:31;;;;;;;22.20;12.15;;;7.40;75.60;;;;;;5015613;28;20399;-66
2022/03/01 11:20:26;;;;;;;20.27;10.55;;;7.40;75.30;;;;;;5005931;28;20501;-65
2022/03/01 11:23:03;;;;;;;24.73;11.65;;;7.30;74.00;;;;;;5005931;28;20103;-65
2022/03/01 11:25:36;;;;;;;24.88;10.20;;;7.30;73.60;;;;;;5007921;28;20156;-66
2022/03/01 11:28:09;;;;;;;25.77;11.38;;;7.30;73.30;;;;;;5007359;28;20060;-66
2022/03/01 11:30:51;;;;;;;24.73;10.70;;;7.30;74.10;;;;;;5002881;28;20046;-66
2022/03/01 11:33:52;;;;;;;22.45;11.75;;;7.20;74.20;;;;;;5003703;28;20076;-65
2022/03/01 11:36:21;;;;;;;21.90;11.25;;;7.20;74.40;;;;;;5003026;28;20088;-65
2022/03/01 11:38:47;;;;;;;25.30;12.20;;;7.20;76.20;;;;;;5007567;28;20503;-65
2022/03/01 11:41:18;;;;;;;20.57;11.93;;;7.20;77.40;;;;;;5004693;28;20044;-66
2022/03/01 11:43:44;;;;;;;21.85;11.40;;;7.10;78.60;;;;;;5006240;28;20138;-65
2022/03/01 11:46:15;;;;;;;22.50;11.23;;;7.20;79.40;;;;;;5005284;28;20680;-66
2022/03/01 11:48:49;;;;;;;24.55;11.32;;;7.20;80.70;;;;;;5008673;28;20057;-65
2022/03/01 11:51:15;;;;;;;23.88;12.50;;;7.20;82.30;;;;;;5001264;28;20052;-65
2022/03/01 11:53:44;;;;;;;24.27;12.70;;;7.20;81.50;;;;;;4997322;28;20472;-66
2022/03/01 11:56:10;;;;;;;27.50;13.27;;;7.20;83.80;;;;;;5005124;28;20304;-66
2022/03/01 11:58:39;;;;;;;23.57;12.47;;;7.20;85.00;;;;;;5000809;28;20406;-65
2022/03/01 12:01:06;;;;;;;25.75;13.38;;;7.20;87.40;;;;;;4998446;28;20164;-65
2022/03/01 12:03:35;;;;;;;26.98;13.48;;;7.20;90.40;;;;;;4999638;28;20042;-65
2022/03/01 12:06:02;;;;;;;25.75;12.30;;;7.20;91.30;;;;;;4991684;28;20046;-66
2022/03/01 12:08:29;;;;;;;25.73;13.43;;;7.20;91.80;;;;;;5000474;28;20045;-65
2022/03/01 12:11:04;;;;;;;22.45;12.68;;;7.20;93.00;;;;;;4987694;28;20053;-65
2022/03/01 12:13:38;;;;;;;26.58;14.07;;;7.20;93.30;;;;;;4984239;28;20044;-65
2022/03/01 12:16:05;;;;;;;24.80;12.88;;;7.30;94.20;;;;;;4996093;28;20402;-66
2022/03/01 12:18:34;;;;;;;25.52;13.63;;;7.30;94.00;;;;;;5002936;28;20048;-66
2022/03/01 12:21:06;;;;;;;25.90;14.23;;;7.30;95.30;;;;;;5003729;28;20037;-65
2022/03/01 12:23:33;;;;;;;26.90;14.00;;;7.30;97.10;;;;;;4985310;28;20131;-66
2022/03/01 12:26:06;;;;;;;28.48;13.98;;;7.40;97.70;;;;;;5001406;28;20384;-65
2022/03/01 12:28:46;;;;;;;27.15;13.25;;;7.40;98.40;;;;;;5002857;28;20042;-65
2022/03/01 12:31:14;;;;;;;33.13;14.98;;;7.40;99.90;;;;;;4983690;28;20499;-66
2022/03/01 12:33:50;;;;;;;27.13;13.98;;;7.50;99.90;;;;;;5000467;28;20514;-65
2022/03/01 12:36:27;;;;;;;23.95;13.73;;;7.50;99.90;;;;;;4998769;28;20186;-66
2022/03/01 12:38:59;;;;;;;26.55;13.40;;;7.50;99.80;;;;;;5006535;28;20064;-66
2022/03/01 12:41:25;;;;;;;26.50;13.65;;;7.50;99.80;;;;;;5000970;28;20037;-66
2022/03/01 12:44:02;;;;;;;23.52;12.35;;;7.60;99.40;;;;;;4996340;28;20041;-66
2022/03/01 12:46:29;;;;;;;26.50;13.48;;;7.60;99.70;;;;;;5003983;28;20042;-66